createdAt,value
2017-05-03T00:00:07.112Z,8.12
2017-05-03T00:01:07.085Z,8.07
2017-05-03T00:02:07.059Z,8.04
2017-05-03T00:03:07.070Z,8.12
2017-05-03T00:04:07.015Z,8.03
2017-05-03T00:05:06.998Z,8.1
2017-05-03T00:06:06.966Z,8.09
2017-05-03T00:07:06.939Z,8.04
2017-05-03T00:08:06.917Z,8.1
2017-05-03T00:09:06.940Z,8.09
2017-05-03T00:10:06.879Z,8.18
2017-05-03T00:11:06.848Z,8.1
2017-05-03T00:12:06.531Z,8.13
2017-05-03T00:13:06.801Z,8.18
2017-05-03T00:14:06.775Z,8.07
2017-05-03T00:15:06.750Z,8.1
2017-05-03T00:16:06.628Z,8.17
2017-05-03T00:17:06.696Z,8.1
2017-05-03T00:18:06.722Z,8.12
2017-05-03T00:19:06.399Z,8.07
2017-05-03T00:20:06.343Z,8.09
2017-05-03T00:21:06.611Z,8.17
2017-05-03T00:22:06.590Z,8.1
2017-05-03T00:23:06.300Z,8.06
2017-05-03T00:24:06.057Z,8.12
2017-05-03T00:25:05.939Z,8.13
2017-05-03T00:26:06.194Z,8.21
2017-05-03T00:27:06.191Z,8.09
2017-05-03T00:28:06.166Z,8.12
2017-05-03T00:29:06.136Z,8.14
2017-05-03T00:30:05.814Z,8.17
2017-05-03T00:31:06.375Z,8.07
2017-05-03T00:32:06.371Z,8.06
2017-05-03T00:33:06.327Z,8.21
2017-05-03T00:34:06.302Z,8.21
2017-05-03T00:35:06.282Z,8.2
2017-05-03T00:36:06.259Z,8.2
2017-05-03T00:37:06.227Z,8.18
2017-05-03T00:38:06.204Z,8.25
2017-05-03T00:39:06.177Z,8.17
2017-05-03T00:40:06.157Z,8.18
2017-05-03T00:41:05.830Z,8.13
2017-05-03T00:42:06.111Z,8.22
2017-05-03T00:43:05.787Z,8.22
2017-05-03T00:44:06.072Z,8.18
2017-05-03T00:45:05.737Z,8.04
2017-05-03T00:46:06.020Z,8.06
2017-05-03T00:47:05.999Z,8.07
2017-05-03T00:48:05.977Z,8.07
2017-05-03T00:49:05.640Z,8.07
2017-05-03T00:50:05.621Z,8.09
2017-05-03T00:51:05.646Z,8.14
2017-05-03T00:53:05.851Z,8.17
2017-05-03T00:54:05.830Z,8.21
2017-05-03T00:55:05.813Z,8.18
2017-05-03T00:56:05.777Z,8.21
2017-05-03T00:57:05.751Z,8.24
2017-05-03T00:58:05.729Z,8.17
2017-05-03T00:59:05.702Z,8.21
2017-05-03T01:00:05.695Z,8.12
2017-05-03T01:01:05.952Z,8.24
2017-05-03T01:02:05.631Z,8.18
2017-05-03T01:03:05.920Z,8.18
2017-05-03T01:04:05.604Z,8.21
2017-05-03T01:05:05.777Z,8.22
2017-05-03T01:06:05.542Z,8.25
2017-05-03T01:07:05.220Z,8.17
2017-05-03T01:08:05.501Z,8.21
2017-05-03T01:09:05.468Z,8.2
2017-05-03T01:10:05.147Z,8.24
2017-05-03T01:11:05.422Z,8.21
2017-05-03T01:12:05.441Z,8.18
2017-05-03T01:13:05.122Z,8.18
2017-05-03T01:14:05.379Z,8.21
2017-05-03T01:15:05.326Z,8.2
2017-05-03T01:16:19.904Z,8.24
2017-05-03T01:17:05.281Z,8.22
2017-05-03T01:18:04.957Z,8.17
2017-05-03T01:19:05.226Z,8.25
2017-05-03T01:20:05.202Z,8.2
2017-05-03T01:21:05.185Z,8.27
2017-05-03T01:22:05.156Z,8.25
2017-05-03T01:23:05.139Z,8.24
2017-05-03T01:24:05.114Z,8.25
2017-05-03T01:25:05.092Z,8.24
2017-05-03T01:26:05.117Z,8.24
2017-05-03T01:27:05.037Z,8.22
2017-05-03T01:28:05.020Z,8.34
2017-05-03T01:29:04.992Z,8.25
2017-05-03T01:30:04.968Z,8.24
2017-05-03T01:31:04.989Z,8.25
2017-05-03T01:32:04.930Z,8.25
2017-05-03T01:33:04.899Z,8.21
2017-05-03T01:34:04.577Z,8.22
2017-05-03T01:35:04.846Z,8.22
2017-05-03T01:36:04.826Z,8.31
2017-05-03T01:37:04.811Z,8.24
2017-05-03T01:38:04.825Z,8.29
2017-05-03T01:39:04.762Z,8.24
2017-05-03T01:40:04.432Z,8.32
2017-05-03T01:41:04.699Z,8.27
2017-05-03T01:42:04.686Z,8.32
2017-05-03T01:43:04.663Z,8.31
2017-05-03T01:44:04.639Z,8.27
2017-05-03T01:45:04.622Z,8.25
2017-05-03T01:46:04.645Z,8.31
2017-05-03T01:47:04.263Z,8.31
2017-05-03T01:48:04.545Z,8.36
2017-05-03T01:49:04.519Z,8.32
2017-05-03T01:50:04.500Z,8.34
2017-05-03T01:51:04.474Z,8.32
2017-05-03T01:52:04.456Z,8.28
2017-05-03T01:53:04.433Z,8.31
2017-05-03T01:54:04.409Z,8.32
2017-05-03T01:55:04.379Z,8.28
2017-05-03T01:56:04.349Z,8.31
2017-05-03T01:57:04.328Z,8.31
2017-05-03T01:58:04.309Z,8.31
2017-05-03T01:59:04.283Z,8.32
2017-05-03T02:00:04.258Z,8.32
2017-05-03T02:01:04.264Z,8.29
2017-05-03T02:02:04.266Z,8.36
2017-05-03T02:03:04.237Z,8.39
2017-05-03T02:04:04.174Z,8.32
2017-05-03T02:05:04.141Z,8.39
2017-05-03T02:06:03.856Z,8.4
2017-05-03T02:07:04.104Z,8.32
2017-05-03T02:08:04.076Z,8.29
2017-05-03T02:09:04.049Z,8.32
2017-05-03T02:10:03.719Z,8.36
2017-05-03T02:11:04.011Z,8.36
2017-05-03T02:12:03.980Z,8.36
2017-05-03T02:13:03.957Z,8.29
2017-05-03T02:14:03.929Z,8.31
2017-05-03T02:15:03.610Z,8.32
2017-05-03T02:16:03.879Z,8.36
2017-05-03T02:17:03.859Z,8.36
2017-05-03T02:18:03.835Z,8.34
2017-05-03T02:19:03.819Z,8.31
2017-05-03T02:20:03.782Z,8.29
2017-05-03T02:21:03.458Z,8.36
2017-05-03T02:22:04.036Z,8.37
2017-05-03T02:23:03.719Z,8.43
2017-05-03T02:24:03.704Z,8.5
2017-05-03T02:25:03.666Z,8.43
2017-05-03T02:26:03.641Z,8.47
2017-05-03T02:27:03.629Z,8.34
2017-05-03T02:28:03.604Z,8.42
2017-05-03T02:29:03.571Z,8.34
2017-05-03T02:30:03.550Z,8.36
2017-05-03T02:31:03.228Z,8.43
2017-05-03T02:32:03.502Z,8.36
2017-05-03T02:33:03.478Z,8.32
2017-05-03T02:34:03.450Z,8.32
2017-05-03T02:35:03.426Z,8.32
2017-05-03T02:36:03.408Z,8.42
2017-05-03T02:37:03.382Z,8.43
2017-05-03T02:38:03.357Z,8.37
2017-05-03T02:39:03.385Z,8.46
2017-05-03T02:40:03.321Z,8.45
2017-05-03T02:41:03.290Z,8.47
2017-05-03T02:42:03.265Z,8.45
2017-05-03T02:43:03.245Z,8.42
2017-05-03T02:44:03.220Z,8.47
2017-05-03T02:45:03.198Z,8.43
2017-05-03T02:46:03.174Z,8.31
2017-05-03T02:47:03.156Z,8.34
2017-05-03T02:48:03.127Z,8.31
2017-05-03T02:49:02.801Z,8.36
2017-05-03T02:50:03.083Z,8.42
2017-05-03T02:51:03.050Z,8.55
2017-05-03T02:52:02.743Z,8.55
2017-05-03T02:53:03.005Z,8.58
2017-05-03T02:54:02.684Z,8.63
2017-05-03T02:55:02.963Z,8.52
2017-05-03T02:56:02.932Z,8.55
2017-05-03T02:57:02.909Z,8.57
2017-05-03T02:58:02.896Z,8.46
2017-05-03T02:59:02.866Z,8.52
2017-05-03T03:00:02.835Z,8.46
2017-05-03T03:01:02.814Z,8.45
2017-05-03T03:02:02.790Z,8.42
2017-05-03T03:03:02.774Z,8.45
2017-05-03T03:04:02.744Z,8.52
2017-05-03T03:05:02.723Z,8.49
2017-05-03T03:06:02.696Z,8.4
2017-05-03T03:07:02.676Z,8.46
2017-05-03T03:08:02.649Z,8.37
2017-05-03T03:09:02.630Z,8.47
2017-05-03T03:10:02.305Z,8.45
2017-05-03T03:11:02.581Z,8.43
2017-05-03T03:12:02.553Z,8.43
2017-05-03T03:13:02.539Z,8.5
2017-05-03T03:14:02.210Z,8.5
2017-05-03T03:15:02.482Z,8.49
2017-05-03T03:16:02.466Z,8.46
2017-05-03T03:17:02.443Z,8.4
2017-05-03T03:18:02.419Z,8.4
2017-05-03T03:19:02.394Z,8.39
2017-05-03T03:20:02.375Z,8.42
2017-05-03T03:21:02.043Z,8.34
2017-05-03T03:22:02.324Z,8.34
2017-05-03T03:23:02.297Z,8.34
2017-05-03T03:24:02.336Z,8.43
2017-05-03T03:25:02.255Z,8.39
2017-05-03T03:26:02.227Z,8.34
2017-05-03T03:27:02.208Z,8.42
2017-05-03T03:28:01.883Z,8.32
2017-05-03T03:29:02.156Z,8.31
2017-05-03T03:30:02.141Z,8.34
2017-05-03T03:31:02.103Z,8.36
2017-05-03T03:32:02.081Z,8.28
2017-05-03T03:33:02.062Z,8.34
2017-05-03T03:34:02.041Z,8.32
2017-05-03T03:35:02.012Z,8.32
2017-05-03T03:36:01.993Z,8.32
2017-05-03T03:37:01.965Z,8.32
2017-05-03T03:38:01.941Z,8.31
2017-05-03T03:39:01.931Z,8.25
2017-05-03T03:40:01.903Z,8.32
2017-05-03T03:41:01.875Z,8.32
2017-05-03T03:42:01.850Z,8.31
2017-05-03T03:43:01.829Z,8.28
2017-05-03T03:44:01.804Z,8.27
2017-05-03T03:45:01.788Z,8.28
2017-05-03T03:46:01.758Z,8.24
2017-05-03T03:47:01.730Z,8.29
2017-05-03T03:48:01.708Z,8.22
2017-05-03T03:49:01.689Z,8.25
2017-05-03T03:50:01.398Z,8.31
2017-05-03T03:51:01.635Z,8.31
2017-05-03T03:52:01.608Z,8.28
2017-05-03T03:53:01.594Z,8.32
2017-05-03T03:54:01.575Z,8.32
2017-05-03T03:55:01.546Z,8.31
2017-05-03T03:56:01.527Z,8.36
2017-05-03T03:57:01.528Z,8.36
2017-05-03T03:58:01.478Z,8.34
2017-05-03T03:59:01.478Z,8.28
2017-05-03T04:00:01.422Z,8.31
2017-05-03T04:01:01.397Z,8.31
2017-05-03T04:02:01.377Z,8.32
2017-05-03T04:03:01.349Z,8.32
2017-05-03T04:04:01.335Z,8.32
2017-05-03T04:05:01.307Z,8.43
2017-05-03T04:06:01.284Z,8.34
2017-05-03T04:07:01.254Z,8.32
2017-05-03T04:08:01.338Z,8.36
2017-05-03T04:09:01.214Z,8.43
2017-05-03T04:10:01.185Z,8.36
2017-05-03T04:11:01.163Z,8.32
2017-05-03T04:12:01.153Z,8.34
2017-05-03T04:13:01.122Z,8.37
2017-05-03T04:14:01.093Z,8.31
2017-05-03T04:15:01.075Z,8.39
2017-05-03T04:16:01.046Z,8.32
2017-05-03T04:17:01.026Z,8.34
2017-05-03T04:18:00.994Z,8.39
2017-05-03T04:19:00.973Z,8.36
2017-05-03T04:20:00.957Z,8.4
2017-05-03T04:21:00.976Z,8.39
2017-05-03T04:22:00.911Z,8.31
2017-05-03T04:23:00.887Z,8.29
2017-05-03T04:24:00.869Z,8.32
2017-05-03T04:25:00.543Z,8.34
2017-05-03T04:26:00.809Z,8.42
2017-05-03T04:27:00.788Z,8.36
2017-05-03T04:28:00.768Z,8.42
2017-05-03T04:29:00.743Z,8.43
2017-05-03T04:30:00.715Z,8.37
2017-05-03T04:31:00.740Z,8.4
2017-05-03T04:32:00.722Z,8.43
2017-05-03T04:33:00.654Z,8.49
2017-05-03T04:34:00.628Z,8.36
2017-05-03T04:35:00.293Z,8.39
2017-05-03T04:36:00.584Z,8.37
2017-05-03T04:37:00.550Z,8.4
2017-05-03T04:38:00.528Z,8.46
2017-05-03T04:39:00.509Z,8.4
2017-05-03T04:40:00.481Z,8.4
2017-05-03T04:41:00.453Z,8.49
2017-05-03T04:42:00.431Z,8.43
2017-05-03T04:43:00.405Z,8.47
2017-05-03T04:44:00.394Z,8.46
2017-05-03T04:45:00.361Z,8.45
2017-05-03T04:46:00.337Z,8.46
2017-05-03T04:47:00.348Z,8.5
2017-05-03T04:48:00.340Z,8.45
2017-05-03T04:48:59.973Z,8.43
2017-05-03T04:49:59.938Z,8.49
2017-05-03T04:51:00.218Z,8.49
2017-05-03T04:51:59.890Z,8.4
2017-05-03T04:53:00.179Z,8.46
2017-05-03T04:54:00.154Z,8.47
2017-05-03T04:55:00.165Z,8.49
2017-05-03T04:56:00.103Z,8.49
2017-05-03T04:57:00.081Z,8.49
2017-05-03T04:58:00.061Z,8.45
2017-05-03T04:58:59.982Z,8.45
2017-05-03T05:00:00.013Z,8.5
2017-05-03T05:00:59.982Z,8.42
2017-05-03T05:01:59.993Z,8.45
2017-05-03T05:02:59.940Z,8.45
2017-05-03T05:03:59.908Z,8.46
2017-05-03T05:04:59.889Z,8.47
2017-05-03T05:05:59.864Z,8.45
2017-05-03T05:06:59.846Z,8.52
2017-05-03T05:07:59.827Z,8.47
2017-05-03T05:08:59.790Z,8.49
2017-05-03T05:09:59.774Z,8.49
2017-05-03T05:10:59.749Z,8.49
2017-05-03T05:11:59.724Z,8.54
2017-05-03T05:12:59.703Z,8.45
2017-05-03T05:13:59.680Z,8.43
2017-05-03T05:15:00.701Z,8.6
2017-05-03T05:15:59.627Z,8.55
2017-05-03T05:16:59.614Z,8.52
2017-05-03T05:17:59.591Z,8.52
2017-05-03T05:18:59.564Z,8.5
2017-05-03T05:19:59.541Z,8.52
2017-05-03T05:20:59.513Z,8.52
2017-05-03T05:21:59.493Z,8.57
2017-05-03T05:22:59.507Z,8.54
2017-05-03T05:23:59.449Z,8.54
2017-05-03T05:24:59.424Z,8.49
2017-05-03T05:25:59.403Z,8.52
2017-05-03T05:26:59.372Z,8.57
2017-05-03T05:27:59.394Z,8.58
2017-05-03T05:28:59.326Z,8.55
2017-05-03T05:29:59.301Z,8.5
2017-05-03T05:30:59.278Z,8.52
2017-05-03T05:31:59.252Z,8.54
2017-05-03T05:32:59.234Z,8.54
2017-05-03T05:33:59.252Z,8.55
2017-05-03T05:34:59.187Z,8.57
2017-05-03T05:35:59.157Z,8.61
2017-05-03T05:36:59.137Z,8.52
2017-05-03T05:37:59.109Z,8.6
2017-05-03T05:38:59.092Z,8.58
2017-05-03T05:39:59.069Z,8.6
2017-05-03T05:40:59.042Z,8.58
2017-05-03T05:41:59.016Z,8.52
2017-05-03T05:42:59.001Z,8.57
2017-05-03T05:43:58.666Z,8.58
2017-05-03T05:44:58.990Z,8.55
2017-05-03T05:45:58.930Z,8.57
2017-05-03T05:46:58.601Z,8.6
2017-05-03T05:47:58.877Z,8.65
2017-05-03T05:48:58.956Z,8.6
2017-05-03T05:49:58.834Z,8.64
2017-05-03T05:50:58.811Z,8.67
2017-05-03T05:51:58.779Z,8.6
2017-05-03T05:52:58.763Z,8.68
2017-05-03T05:53:58.736Z,8.65
2017-05-03T05:54:58.717Z,8.71
2017-05-03T05:55:58.693Z,8.68
2017-05-03T05:56:58.666Z,8.67
2017-05-03T05:57:58.651Z,8.65
2017-05-03T05:58:58.622Z,8.68
2017-05-03T05:59:58.654Z,8.65
2017-05-03T06:00:58.576Z,8.68
2017-05-03T06:01:58.551Z,8.83
2017-05-03T06:02:58.546Z,8.76
2017-05-03T06:03:58.554Z,8.82
2017-05-03T06:04:58.174Z,8.79
2017-05-03T06:05:58.454Z,8.83
2017-05-03T06:06:58.449Z,8.83
2017-05-03T06:07:58.413Z,8.91
2017-05-03T06:08:58.401Z,8.88
2017-05-03T06:09:58.368Z,8.86
2017-05-03T06:10:58.343Z,8.89
2017-05-03T06:11:58.323Z,8.86
2017-05-03T06:12:58.295Z,8.82
2017-05-03T06:13:58.274Z,8.85
2017-05-03T06:14:58.250Z,8.89
2017-05-03T06:15:57.918Z,8.85
2017-05-03T06:16:58.203Z,8.86
2017-05-03T06:17:58.181Z,8.86
2017-05-03T06:18:58.159Z,8.91
2017-05-03T06:19:58.127Z,8.94
2017-05-03T06:20:58.103Z,8.86
2017-05-03T06:21:58.085Z,8.89
2017-05-03T06:22:58.058Z,8.91
2017-05-03T06:23:58.037Z,8.82
2017-05-03T06:24:58.019Z,8.91
2017-05-03T06:25:57.990Z,8.83
2017-05-03T06:26:57.965Z,8.88
2017-05-03T06:27:57.950Z,8.89
2017-05-03T06:28:57.920Z,8.96
2017-05-03T06:29:57.893Z,8.89
2017-05-03T06:30:57.874Z,8.91
2017-05-03T06:31:57.853Z,8.83
2017-05-03T06:32:57.831Z,8.93
2017-05-03T06:33:57.813Z,8.97
2017-05-03T06:34:57.786Z,9
2017-05-03T06:35:57.758Z,9.04
2017-05-03T06:36:57.739Z,9.12
2017-05-03T06:37:57.711Z,9.12
2017-05-03T06:38:57.386Z,9.23
2017-05-03T06:39:57.672Z,9.23
2017-05-03T06:40:57.644Z,9.37
2017-05-03T06:41:57.618Z,9.35
2017-05-03T06:42:57.604Z,9.38
2017-05-03T06:43:57.576Z,9.38
2017-05-03T06:44:57.553Z,9.42
2017-05-03T06:45:57.529Z,9.45
2017-05-03T06:46:57.511Z,9.41
2017-05-03T06:47:57.494Z,9.42
2017-05-03T06:48:57.516Z,9.32
2017-05-03T06:49:57.441Z,9.42
2017-05-03T06:50:57.418Z,9.44
2017-05-03T06:51:57.392Z,9.38
2017-05-03T06:52:57.384Z,9.49
2017-05-03T06:53:57.399Z,9.55
2017-05-03T06:54:57.327Z,9.56
2017-05-03T06:55:57.308Z,9.67
2017-05-03T06:56:57.281Z,9.77
2017-05-03T06:57:57.273Z,9.77
2017-05-03T06:58:57.239Z,9.85
2017-05-03T06:59:57.205Z,9.89
2017-05-03T07:00:57.191Z,9.85
2017-05-03T07:01:57.165Z,9.85
2017-05-03T07:02:56.855Z,9.85
2017-05-03T07:03:57.123Z,9.89
2017-05-03T07:04:57.102Z,9.89
2017-05-03T07:05:57.073Z,10.01
2017-05-03T07:06:57.353Z,9.93
2017-05-03T07:07:57.040Z,9.85
2017-05-03T07:08:57.009Z,9.75
2017-05-03T07:09:56.997Z,9.7
2017-05-03T07:10:56.974Z,9.7
2017-05-03T07:11:56.952Z,9.77
2017-05-03T07:12:56.921Z,9.75
2017-05-03T07:13:56.911Z,9.83
2017-05-03T07:14:56.883Z,9.77
2017-05-03T07:15:56.853Z,9.75
2017-05-03T07:16:56.828Z,9.74
2017-05-03T07:17:56.809Z,9.74
2017-05-03T07:18:56.790Z,9.78
2017-05-03T07:19:56.764Z,9.77
2017-05-03T07:20:56.743Z,9.78
2017-05-03T07:21:56.726Z,9.77
2017-05-03T07:22:56.699Z,9.83
2017-05-03T07:23:56.780Z,9.89
2017-05-03T07:24:56.649Z,9.96
2017-05-03T07:25:56.638Z,9.99
2017-05-03T07:26:56.668Z,10.14
2017-05-03T07:27:56.593Z,10.22
2017-05-03T07:28:56.568Z,10.35
2017-05-03T07:29:56.548Z,10.49
2017-05-03T07:30:56.514Z,10.54
2017-05-03T07:31:56.502Z,10.52
2017-05-03T07:32:56.483Z,10.54
2017-05-03T07:33:56.453Z,10.69
2017-05-03T07:34:56.483Z,10.86
2017-05-03T07:35:56.410Z,10.83
2017-05-03T07:36:56.386Z,10.93
2017-05-03T07:37:56.371Z,11.03
2017-05-03T07:38:56.346Z,11.39
2017-05-03T07:39:56.326Z,11.53
2017-05-03T07:40:56.303Z,11.57
2017-05-03T07:41:56.334Z,11.62
2017-05-03T07:42:56.262Z,11.62
2017-05-03T07:43:55.946Z,11.51
2017-05-03T07:44:56.268Z,11.33
2017-05-03T07:45:56.203Z,11.24
2017-05-03T07:46:57.184Z,11.03
2017-05-03T07:47:56.160Z,11.02
2017-05-03T07:48:56.143Z,10.87
2017-05-03T07:49:56.115Z,10.84
2017-05-03T07:50:56.091Z,10.99
2017-05-03T07:51:55.776Z,11.01
2017-05-03T07:52:56.051Z,11.01
2017-05-03T07:53:56.027Z,11.01
2017-05-03T07:54:55.701Z,10.98
2017-05-03T07:55:55.696Z,10.91
2017-05-03T07:56:55.960Z,10.98
2017-05-03T07:57:55.950Z,10.78
2017-05-03T07:58:55.619Z,10.68
2017-05-03T07:59:55.610Z,10.69
2017-05-03T08:00:55.887Z,10.69
2017-05-03T08:01:55.863Z,10.7
2017-05-03T08:02:55.941Z,10.84
2017-05-03T08:03:55.822Z,10.78
2017-05-03T08:04:55.497Z,10.88
2017-05-03T08:05:55.477Z,10.99
2017-05-03T08:06:55.751Z,11.24
2017-05-03T08:07:55.734Z,11.35
2017-05-03T08:08:55.707Z,11.42
2017-05-03T08:09:55.393Z,11.36
2017-05-03T08:10:55.661Z,11.31
2017-05-03T08:11:55.652Z,11.3
2017-05-03T08:12:55.675Z,11.26
2017-05-03T08:13:55.607Z,11.21
2017-05-03T08:14:55.585Z,11.03
2017-05-03T08:15:55.569Z,10.95
2017-05-03T08:16:55.546Z,10.98
2017-05-03T08:17:55.518Z,10.87
2017-05-03T08:18:55.501Z,10.76
2017-05-03T08:19:55.474Z,10.8
2017-05-03T08:20:55.465Z,10.81
2017-05-03T08:21:55.435Z,10.84
2017-05-03T08:22:55.416Z,10.87
2017-05-03T08:23:55.085Z,10.84
2017-05-03T08:24:55.366Z,10.95
2017-05-03T08:25:55.038Z,11.06
2017-05-03T08:26:55.317Z,11.17
2017-05-03T08:27:55.005Z,11.42
2017-05-03T08:28:55.023Z,11.57
2017-05-03T08:29:54.855Z,11.53
2017-05-03T08:30:54.949Z,11.56
2017-05-03T08:31:54.706Z,11.7
2017-05-03T08:32:54.629Z,12
2017-05-03T08:33:54.702Z,12.25
2017-05-03T08:35:09.814Z,12.31
2017-05-03T08:35:54.734Z,12.34
2017-05-03T08:36:54.891Z,12.31
2017-05-03T08:37:54.627Z,12.19
2017-05-03T08:38:55.018Z,12.03
2017-05-03T08:39:54.580Z,11.98
2017-05-03T08:40:54.750Z,12
2017-05-03T08:41:54.431Z,12.36
2017-05-03T08:42:54.709Z,12.52
2017-05-03T08:43:54.680Z,12.37
2017-05-03T08:44:55.002Z,12.23
2017-05-03T08:45:54.924Z,12.03
2017-05-03T08:46:54.910Z,11.87
2017-05-03T08:47:54.883Z,11.79
2017-05-03T08:48:54.863Z,11.81
2017-05-03T08:49:54.841Z,11.81
2017-05-03T08:50:54.833Z,11.84
2017-05-03T08:51:54.851Z,11.85
2017-05-03T08:52:54.785Z,12.03
2017-05-03T08:53:54.756Z,12.37
2017-05-03T08:54:54.793Z,12.48
2017-05-03T08:55:54.717Z,12.69
2017-05-03T08:56:54.703Z,12.74
2017-05-03T08:57:54.686Z,12.7
2017-05-03T08:58:54.666Z,12.67
2017-05-03T08:59:54.663Z,12.73
2017-05-03T09:00:54.635Z,12.73
2017-05-03T09:01:54.598Z,12.87
2017-05-03T09:02:54.585Z,13.04
2017-05-03T09:03:54.559Z,13.13
2017-05-03T09:04:53.944Z,13.16
2017-05-03T09:05:54.529Z,13.14
2017-05-03T09:06:54.508Z,13.07
2017-05-03T09:07:54.193Z,12.98
2017-05-03T09:08:54.474Z,12.88
2017-05-03T09:09:54.445Z,12.87
2017-05-03T09:10:54.432Z,12.88
2017-05-03T09:11:54.407Z,13.01
2017-05-03T09:12:54.387Z,13.17
2017-05-03T09:13:54.376Z,13.21
2017-05-03T09:14:54.353Z,13.24
2017-05-03T09:15:54.330Z,13.38
2017-05-03T09:16:54.318Z,13.62
2017-05-03T09:17:54.289Z,13.84
2017-05-03T09:18:54.272Z,14.04
2017-05-03T09:19:54.259Z,14.39
2017-05-03T09:20:54.240Z,14.82
2017-05-03T09:21:54.259Z,14.71
2017-05-03T09:22:53.897Z,14.59
2017-05-03T09:23:54.246Z,14.19
2017-05-03T09:24:54.162Z,13.91
2017-05-03T09:25:54.147Z,13.59
2017-05-03T09:26:54.124Z,13.47
2017-05-03T09:27:54.113Z,13.13
2017-05-03T09:28:53.790Z,13.13
2017-05-03T09:29:54.079Z,13.1
2017-05-03T09:30:54.263Z,13.14
2017-05-03T09:31:54.037Z,13.73
2017-05-03T09:32:54.013Z,14.05
2017-05-03T09:33:53.998Z,14.04
2017-05-03T09:34:53.971Z,14.11
2017-05-03T09:35:53.961Z,14.38
2017-05-03T09:36:53.942Z,14.44
2017-05-03T09:37:53.937Z,14.42
2017-05-03T09:38:53.905Z,14.24
2017-05-03T09:39:53.884Z,13.91
2017-05-03T09:40:53.865Z,13.69
2017-05-03T09:41:53.850Z,13.62
2017-05-03T09:42:53.832Z,13.43
2017-05-03T09:43:53.815Z,13.38
2017-05-03T09:44:53.795Z,13.12
2017-05-03T09:45:53.973Z,13.06
2017-05-03T09:46:53.758Z,12.87
2017-05-03T09:47:53.732Z,12.85
2017-05-03T09:48:53.721Z,12.74
2017-05-03T09:49:53.746Z,12.71
2017-05-03T09:50:53.680Z,12.67
2017-05-03T09:51:53.655Z,12.66
2017-05-03T09:52:53.384Z,12.62
2017-05-03T09:53:53.621Z,12.7
2017-05-03T09:54:53.608Z,12.7
2017-05-03T09:55:53.286Z,12.84
2017-05-03T09:56:53.268Z,12.96
2017-05-03T09:57:53.558Z,13.06
2017-05-03T09:58:53.274Z,13.16
2017-05-03T09:59:53.505Z,13.1
2017-05-03T10:00:53.476Z,13.1
2017-05-03T10:01:53.208Z,12.99
2017-05-03T10:02:53.142Z,13.13
2017-05-03T10:03:53.169Z,13.17
2017-05-03T10:04:53.463Z,13.17
2017-05-03T10:05:53.083Z,13.32
2017-05-03T10:06:53.359Z,13.81
2017-05-03T10:07:53.395Z,14.31
2017-05-03T10:08:53.327Z,15.01
2017-05-03T10:09:53.058Z,15.51
2017-05-03T10:10:53.335Z,15.93
2017-05-03T10:11:53.267Z,15.88
2017-05-03T10:12:53.259Z,15.67
2017-05-03T10:13:53.229Z,15.3
2017-05-03T10:14:53.219Z,14.83
2017-05-03T10:15:53.247Z,14.41
2017-05-03T10:16:53.179Z,14.16
2017-05-03T10:17:53.156Z,14.04
2017-05-03T10:19:07.754Z,13.79
2017-05-03T10:19:53.120Z,13.72
2017-05-03T10:20:52.804Z,13.55
2017-05-03T10:21:53.089Z,13.47
2017-05-03T10:22:53.072Z,13.38
2017-05-03T10:23:53.051Z,13.29
2017-05-03T10:24:52.432Z,13.32
2017-05-03T10:25:52.711Z,13.28
2017-05-03T10:26:52.991Z,13.22
2017-05-03T10:27:52.670Z,13.19
2017-05-03T10:28:52.952Z,13.13
2017-05-03T10:29:52.938Z,13.13
2017-05-03T10:30:52.916Z,13.09
2017-05-03T10:31:52.608Z,13.04
2017-05-03T10:32:52.874Z,13.22
2017-05-03T10:33:52.877Z,13.31
2017-05-03T10:35:07.443Z,13.39
2017-05-03T10:35:52.816Z,13.44
2017-05-03T10:36:52.837Z,13.5
2017-05-03T10:37:52.778Z,13.5
2017-05-03T10:38:52.458Z,13.51
2017-05-03T10:39:52.447Z,13.62
2017-05-03T10:40:52.413Z,13.88
2017-05-03T10:41:52.709Z,13.98
2017-05-03T10:42:52.688Z,14.04
2017-05-03T10:43:52.662Z,14.09
2017-05-03T10:44:52.709Z,14.27
2017-05-03T10:45:52.632Z,14.34
2017-05-03T10:46:52.315Z,14.27
2017-05-03T10:47:52.594Z,14.38
2017-05-03T10:48:52.564Z,14.45
2017-05-03T10:49:52.545Z,14.41
2017-05-03T10:50:52.531Z,14.49
2017-05-03T10:51:52.267Z,14.59
2017-05-03T10:52:52.193Z,14.39
2017-05-03T10:53:52.486Z,14.29
2017-05-03T10:54:52.163Z,14.29
2017-05-03T10:55:52.498Z,14.26
2017-05-03T10:56:52.176Z,14.3
2017-05-03T10:57:51.807Z,14.17
2017-05-03T10:58:52.392Z,14.21
2017-05-03T10:59:52.377Z,14.12
2017-05-03T11:00:52.342Z,14.24
2017-05-03T11:01:52.330Z,14.06
2017-05-03T11:02:52.317Z,14.02
2017-05-03T11:03:52.290Z,13.94
2017-05-03T11:04:52.276Z,13.91
2017-05-03T11:05:52.250Z,13.99
2017-05-03T11:06:52.237Z,13.98
2017-05-03T11:07:52.212Z,14.01
2017-05-03T11:08:52.193Z,14.06
2017-05-03T11:09:52.177Z,14.26
2017-05-03T11:10:52.170Z,14.29
2017-05-03T11:11:52.136Z,14.23
2017-05-03T11:12:51.827Z,14.23
2017-05-03T11:13:52.094Z,14.26
2017-05-03T11:14:52.078Z,14.34
2017-05-03T11:15:52.065Z,14.29
2017-05-03T11:16:52.036Z,14.27
2017-05-03T11:17:52.019Z,14.31
2017-05-03T11:18:51.704Z,14.46
2017-05-03T11:19:51.980Z,14.41
2017-05-03T11:20:51.957Z,14.38
2017-05-03T11:21:51.646Z,14.44
2017-05-03T11:22:51.922Z,14.44
2017-05-03T11:23:51.907Z,14.44
2017-05-03T11:24:51.578Z,14.52
2017-05-03T11:25:51.865Z,14.64
2017-05-03T11:26:51.544Z,14.78
2017-05-03T11:27:51.823Z,14.8
2017-05-03T11:28:51.808Z,14.8
2017-05-03T11:29:51.248Z,14.79
2017-05-03T11:30:51.470Z,14.82
2017-05-03T11:31:51.791Z,14.86
2017-05-03T11:32:51.830Z,14.94
2017-05-03T11:33:51.733Z,14.97
2017-05-03T11:34:51.688Z,15
2017-05-03T11:35:51.680Z,15.11
2017-05-03T11:36:51.651Z,15.19
2017-05-03T11:37:51.681Z,15.34
2017-05-03T11:38:51.616Z,15.28
2017-05-03T11:39:51.588Z,15.46
2017-05-03T11:40:51.271Z,15.46
2017-05-03T11:41:51.622Z,15.49
2017-05-03T11:42:51.539Z,15.66
2017-05-03T11:43:51.518Z,15.55
2017-05-03T11:44:51.495Z,15.67
2017-05-03T11:45:51.472Z,15.62
2017-05-03T11:46:51.459Z,15.46
2017-05-03T11:47:51.446Z,15.37
2017-05-03T11:48:51.424Z,15.25
2017-05-03T11:49:51.445Z,15.28
2017-05-03T11:50:51.379Z,15.27
2017-05-03T11:51:51.380Z,15.22
2017-05-03T11:52:51.336Z,15.13
2017-05-03T11:53:51.325Z,15.09
2017-05-03T11:54:51.300Z,15.12
2017-05-03T11:55:51.278Z,15.12
2017-05-03T11:56:51.261Z,15.11
2017-05-03T11:57:50.960Z,15.07
2017-05-03T11:58:51.225Z,15.15
2017-05-03T11:59:50.898Z,15.05
2017-05-03T12:00:51.181Z,15.07
2017-05-03T12:01:51.161Z,15.19
2017-05-03T12:02:51.255Z,15.33
2017-05-03T12:03:51.117Z,15.52
2017-05-03T12:04:51.099Z,15.6
2017-05-03T12:05:51.078Z,15.81
2017-05-03T12:06:51.066Z,15.88
2017-05-03T12:07:51.043Z,15.98
2017-05-03T12:08:51.027Z,15.93
2017-05-03T12:09:50.994Z,15.96
2017-05-03T12:10:51.095Z,15.88
2017-05-03T12:11:51.223Z,15.85
2017-05-03T12:12:50.941Z,15.92
2017-05-03T12:13:50.924Z,15.89
2017-05-03T12:14:50.910Z,15.98
2017-05-03T12:15:50.983Z,15.86
2017-05-03T12:16:50.782Z,15.88
2017-05-03T12:17:50.844Z,15.76
2017-05-03T12:18:50.827Z,15.78
2017-05-03T12:19:50.810Z,15.78
2017-05-03T12:20:50.889Z,15.77
2017-05-03T12:21:50.768Z,15.88
2017-05-03T12:22:50.751Z,15.81
2017-05-03T12:23:50.785Z,15.84
2017-05-03T12:24:50.717Z,15.89
2017-05-03T12:25:50.795Z,15.84
2017-05-03T12:26:50.672Z,15.96
2017-05-03T12:27:50.357Z,15.96
2017-05-03T12:28:50.633Z,15.91
2017-05-03T12:29:50.615Z,15.95
2017-05-03T12:30:50.596Z,15.98
2017-05-03T12:31:50.573Z,15.92
2017-05-03T12:32:50.551Z,15.95
2017-05-03T12:33:50.232Z,15.95
2017-05-03T12:34:50.519Z,15.95
2017-05-03T12:35:50.498Z,15.98
2017-05-03T12:36:50.473Z,15.99
2017-05-03T12:37:50.458Z,15.98
2017-05-03T12:38:50.131Z,15.85
2017-05-03T12:39:50.417Z,15.88
2017-05-03T12:40:50.448Z,15.88
2017-05-03T12:41:50.378Z,15.89
2017-05-03T12:42:50.353Z,15.93
2017-05-03T12:43:50.340Z,15.89
2017-05-03T12:44:50.331Z,15.85
2017-05-03T12:45:50.306Z,15.91
2017-05-03T12:46:49.989Z,15.86
2017-05-03T12:47:50.274Z,15.93
2017-05-03T12:48:50.242Z,15.92
2017-05-03T12:49:50.225Z,15.96
2017-05-03T12:50:50.209Z,16.1
2017-05-03T12:51:50.181Z,16.14
2017-05-03T12:52:50.167Z,16.23
2017-05-03T12:53:50.141Z,16.22
2017-05-03T12:54:50.120Z,16.17
2017-05-03T12:55:50.103Z,16.1
2017-05-03T12:56:50.084Z,16.08
2017-05-03T12:57:50.118Z,16.1
2017-05-03T12:58:50.103Z,16.13
2017-05-03T12:59:50.021Z,16.17
2017-05-03T13:00:50.006Z,16.1
2017-05-03T13:01:50.003Z,16.16
2017-05-03T13:02:49.663Z,16.08
2017-05-03T13:03:50.004Z,16.1
2017-05-03T13:04:49.925Z,16.07
2017-05-03T13:05:49.909Z,16.11
2017-05-03T13:06:50.037Z,16.13
2017-05-03T13:07:49.916Z,16.16
2017-05-03T13:08:49.541Z,16.25
2017-05-03T13:09:49.837Z,16.29